sensor_id;sensor_type;location;lat;lon;timestamp;P1;durP1;ratioP1;P2;durP2;ratioP2
13291;SDS011;6714;53.056;8.690;2023-03-01T00:02:19;7.77;;;6.00;;
13291;SDS011;6714;53.056;8.690;2023-03-01T00:05:06;8.97;;;6.57;;
13291;SDS011;6714;53.056;8.690;2023-03-01T00:07:52;10.30;;;6.83;;
13291;SDS011;6714;53.056;8.690;2023-03-01T00:10:34;10.23;;;7.10;;
13291;SDS011;6714;53.056;8.690;2023-03-01T00:13:17;13.73;;;7.27;;
13291;SDS011;6714;53.056;8.690;2023-03-01T00:16:01;10.93;;;7.57;;
13291;SDS011;6714;53.056;8.690;2023-03-01T00:18:46;9.37;;;7.17;;
13291;SDS011;6714;53.056;8.690;2023-03-01T00:21:28;9.47;;;6.83;;
13291;SDS011;6714;53.056;8.690;2023-03-01T00:24:11;11.07;;;7.40;;
13291;SDS011;6714;53.056;8.690;2023-03-01T00:26:54;11.73;;;7.03;;
13291;SDS011;6714;53.056;8.690;2023-03-01T00:29:36;11.37;;;7.90;;
13291;SDS011;6714;53.056;8.690;2023-03-01T00:32:19;12.17;;;7.53;;
13291;SDS011;6714;53.056;8.690;2023-03-01T00:35:04;10.80;;;7.50;;
13291;SDS011;6714;53.056;8.690;2023-03-01T00:37:47;11.20;;;7.70;;
13291;SDS011;6714;53.056;8.690;2023-03-01T00:40:34;9.37;;;7.00;;
13291;SDS011;6714;53.056;8.690;2023-03-01T00:43:17;8.87;;;6.57;;
13291;SDS011;6714;53.056;8.690;2023-03-01T00:46:00;8.20;;;6.33;;
13291;SDS011;6714;53.056;8.690;2023-03-01T00:48:43;9.77;;;6.60;;
13291;SDS011;6714;53.056;8.690;2023-03-01T00:51:28;9.33;;;5.83;;
13291;SDS011;6714;53.056;8.690;2023-03-01T00:54:11;8.73;;;7.13;;
13291;SDS011;6714;53.056;8.690;2023-03-01T00:56:54;10.33;;;7.23;;
13291;SDS011;6714;53.056;8.690;2023-03-01T00:59:36;10.97;;;7.50;;
13291;SDS011;6714;53.056;8.690;2023-03-01T01:02:19;9.00;;;6.67;;
13291;SDS011;6714;53.056;8.690;2023-03-01T01:05:02;9.03;;;6.47;;
13291;SDS011;6714;53.056;8.690;2023-03-01T01:07:47;13.80;;;8.23;;
13291;SDS011;6714;53.056;8.690;2023-03-01T01:10:30;12.53;;;8.67;;
13291;SDS011;6714;53.056;8.690;2023-03-01T01:13:14;13.33;;;9.17;;
13291;SDS011;6714;53.056;8.690;2023-03-01T01:16:00;13.77;;;9.50;;
13291;SDS011;6714;53.056;8.690;2023-03-01T01:18:42;15.93;;;9.70;;
13291;SDS011;6714;53.056;8.690;2023-03-01T01:21:25;10.60;;;7.73;;
13291;SDS011;6714;53.056;8.690;2023-03-01T01:24:10;15.00;;;9.63;;
13291;SDS011;6714;53.056;8.690;2023-03-01T01:26:53;13.03;;;9.20;;
13291;SDS011;6714;53.056;8.690;2023-03-01T01:29:35;13.70;;;8.90;;
13291;SDS011;6714;53.056;8.690;2023-03-01T01:32:19;13.83;;;9.60;;
13291;SDS011;6714;53.056;8.690;2023-03-01T01:35:02;13.47;;;9.37;;
13291;SDS011;6714;53.056;8.690;2023-03-01T01:37:45;13.40;;;10.00;;
13291;SDS011;6714;53.056;8.690;2023-03-01T01:40:32;13.40;;;9.80;;
13291;SDS011;6714;53.056;8.690;2023-03-01T01:43:20;13.53;;;9.70;;
13291;SDS011;6714;53.056;8.690;2023-03-01T01:46:03;14.60;;;9.73;;
13291;SDS011;6714;53.056;8.690;2023-03-01T01:48:49;13.53;;;10.10;;
13291;SDS011;6714;53.056;8.690;2023-03-01T01:51:32;12.03;;;9.83;;
13291;SDS011;6714;53.056;8.690;2023-03-01T01:54:20;12.93;;;9.37;;
13291;SDS011;6714;53.056;8.690;2023-03-01T01:57:06;12.87;;;9.47;;
13291;SDS011;6714;53.056;8.690;2023-03-01T01:59:50;13.57;;;9.90;;
13291;SDS011;6714;53.056;8.690;2023-03-01T02:02:36;15.00;;;10.27;;
13291;SDS011;6714;53.056;8.690;2023-03-01T02:05:22;14.27;;;10.23;;
13291;SDS011;6714;53.056;8.690;2023-03-01T02:08:06;15.10;;;10.93;;
13291;SDS011;6714;53.056;8.690;2023-03-01T02:10:52;14.40;;;9.30;;
13291;SDS011;6714;53.056;8.690;2023-03-01T02:13:37;13.47;;;9.17;;
13291;SDS011;6714;53.056;8.690;2023-03-01T02:16:20;14.50;;;9.60;;
13291;SDS011;6714;53.056;8.690;2023-03-01T02:19:03;13.53;;;9.80;;
13291;SDS011;6714;53.056;8.690;2023-03-01T02:21:49;12.80;;;9.57;;
13291;SDS011;6714;53.056;8.690;2023-03-01T02:24:39;14.77;;;10.20;;
13291;SDS011;6714;53.056;8.690;2023-03-01T02:27:27;16.83;;;10.47;;
13291;SDS011;6714;53.056;8.690;2023-03-01T02:30:17;13.93;;;9.63;;
13291;SDS011;6714;53.056;8.690;2023-03-01T02:33:00;14.87;;;10.30;;
13291;SDS011;6714;53.056;8.690;2023-03-01T02:35:44;15.80;;;10.47;;
13291;SDS011;6714;53.056;8.690;2023-03-01T02:38:27;14.67;;;10.07;;
13291;SDS011;6714;53.056;8.690;2023-03-01T02:41:10;16.07;;;9.67;;
13291;SDS011;6714;53.056;8.690;2023-03-01T02:43:55;13.50;;;10.10;;
13291;SDS011;6714;53.056;8.690;2023-03-01T02:46:43;16.97;;;11.07;;
13291;SDS011;6714;53.056;8.690;2023-03-01T02:49:27;14.40;;;10.10;;
13291;SDS011;6714;53.056;8.690;2023-03-01T02:52:17;15.87;;;11.00;;
13291;SDS011;6714;53.056;8.690;2023-03-01T02:55:06;16.57;;;11.07;;
13291;SDS011;6714;53.056;8.690;2023-03-01T02:57:51;15.03;;;11.00;;
13291;SDS011;6714;53.056;8.690;2023-03-01T03:00:35;15.90;;;10.70;;
13291;SDS011;6714;53.056;8.690;2023-03-01T03:03:23;11.80;;;8.63;;
13291;SDS011;6714;53.056;8.690;2023-03-01T03:06:06;14.50;;;10.93;;
13291;SDS011;6714;53.056;8.690;2023-03-01T03:08:49;17.20;;;11.40;;
13291;SDS011;6714;53.056;8.690;2023-03-01T03:11:31;13.90;;;10.40;;
13291;SDS011;6714;53.056;8.690;2023-03-01T03:14:17;16.40;;;9.87;;
13291;SDS011;6714;53.056;8.690;2023-03-01T03:16:59;17.07;;;9.50;;
13291;SDS011;6714;53.056;8.690;2023-03-01T03:19:48;13.80;;;9.70;;
13291;SDS011;6714;53.056;8.690;2023-03-01T03:22:30;13.60;;;9.50;;
13291;SDS011;6714;53.056;8.690;2023-03-01T03:25:14;12.57;;;9.40;;
13291;SDS011;6714;53.056;8.690;2023-03-01T03:27:57;16.63;;;9.57;;
13291;SDS011;6714;53.056;8.690;2023-03-01T03:30:40;13.27;;;10.10;;
13291;SDS011;6714;53.056;8.690;2023-03-01T03:33:23;13.30;;;9.77;;
13291;SDS011;6714;53.056;8.690;2023-03-01T03:36:08;11.97;;;9.23;;
13291;SDS011;6714;53.056;8.690;2023-03-01T03:38:53;12.63;;;8.30;;
13291;SDS011;6714;53.056;8.690;2023-03-01T03:41:36;11.07;;;8.00;;
13291;SDS011;6714;53.056;8.690;2023-03-01T03:44:18;9.23;;;7.67;;
13291;SDS011;6714;53.056;8.690;2023-03-01T03:47:01;10.93;;;7.73;;
13291;SDS011;6714;53.056;8.690;2023-03-01T03:49:44;11.20;;;8.07;;
13291;SDS011;6714;53.056;8.690;2023-03-01T03:52:28;9.27;;;7.57;;
13291;SDS011;6714;53.056;8.690;2023-03-01T03:55:11;13.17;;;8.47;;
13291;SDS011;6714;53.056;8.690;2023-03-01T03:57:59;10.47;;;8.10;;
13291;SDS011;6714;53.056;8.690;2023-03-01T04:00:47;13.73;;;9.03;;
13291;SDS011;6714;53.056;8.690;2023-03-01T04:03:31;13.53;;;8.27;;
13291;SDS011;6714;53.056;8.690;2023-03-01T04:06:15;11.40;;;8.60;;
13291;SDS011;6714;53.056;8.690;2023-03-01T04:08:59;15.10;;;8.93;;
13291;SDS011;6714;53.056;8.690;2023-03-01T04:11:43;12.73;;;8.00;;
13291;SDS011;6714;53.056;8.690;2023-03-01T04:14:25;10.23;;;8.00;;
13291;SDS011;6714;53.056;8.690;2023-03-01T04:17:08;10.20;;;7.90;;
13291;SDS011;6714;53.056;8.690;2023-03-01T04:19:51;10.77;;;7.87;;
13291;SDS011;6714;53.056;8.690;2023-03-01T04:22:33;9.53;;;7.43;;
13291;SDS011;6714;53.056;8.690;2023-03-01T04:25:20;8.30;;;6.83;;
13291;SDS011;6714;53.056;8.690;2023-03-01T04:28:03;9.33;;;7.63;;
13291;SDS011;6714;53.056;8.690;2023-03-01T04:30:45;10.07;;;7.53;;
13291;SDS011;6714;53.056;8.690;2023-03-01T04:33:28;10.50;;;7.00;;
13291;SDS011;6714;53.056;8.690;2023-03-01T04:36:11;8.90;;;7.10;;
13291;SDS011;6714;53.056;8.690;2023-03-01T04:38:54;8.13;;;7.00;;
13291;SDS011;6714;53.056;8.690;2023-03-01T04:41:40;11.73;;;7.47;;
13291;SDS011;6714;53.056;8.690;2023-03-01T04:44:23;10.00;;;7.97;;
13291;SDS011;6714;53.056;8.690;2023-03-01T04:47:07;10.37;;;7.50;;
13291;SDS011;6714;53.056;8.690;2023-03-01T04:49:53;9.63;;;7.30;;
13291;SDS011;6714;53.056;8.690;2023-03-01T04:52:36;11.80;;;7.80;;
13291;SDS011;6714;53.056;8.690;2023-03-01T04:55:19;10.93;;;8.00;;
13291;SDS011;6714;53.056;8.690;2023-03-01T04:58:05;11.50;;;7.83;;
13291;SDS011;6714;53.056;8.690;2023-03-01T05:00:47;12.97;;;8.30;;
13291;SDS011;6714;53.056;8.690;2023-03-01T05:03:30;11.30;;;8.00;;
13291;SDS011;6714;53.056;8.690;2023-03-01T05:06:13;12.63;;;8.60;;
13291;SDS011;6714;53.056;8.690;2023-03-01T05:08:56;13.03;;;8.53;;
13291;SDS011;6714;53.056;8.690;2023-03-01T05:11:39;10.63;;;8.57;;
13291;SDS011;6714;53.056;8.690;2023-03-01T05:14:25;12.43;;;9.20;;
13291;SDS011;6714;53.056;8.690;2023-03-01T05:17:09;9.90;;;7.37;;
13291;SDS011;6714;53.056;8.690;2023-03-01T05:19:51;8.97;;;7.33;;
13291;SDS011;6714;53.056;8.690;2023-03-01T05:22:36;12.67;;;8.83;;
13291;SDS011;6714;53.056;8.690;2023-03-01T05:25:18;10.27;;;7.40;;
13291;SDS011;6714;53.056;8.690;2023-03-01T05:28:02;10.13;;;7.60;;
13291;SDS011;6714;53.056;8.690;2023-03-01T05:30:46;11.77;;;8.30;;
13291;SDS011;6714;53.056;8.690;2023-03-01T05:33:31;9.47;;;7.27;;
13291;SDS011;6714;53.056;8.690;2023-03-01T05:36:14;9.20;;;7.70;;
13291;SDS011;6714;53.056;8.690;2023-03-01T05:38:58;11.50;;;7.63;;
13291;SDS011;6714;53.056;8.690;2023-03-01T05:41:41;11.03;;;8.10;;
13291;SDS011;6714;53.056;8.690;2023-03-01T05:44:24;12.50;;;8.50;;
13291;SDS011;6714;53.056;8.690;2023-03-01T05:47:11;11.20;;;7.80;;
13291;SDS011;6714;53.056;8.690;2023-03-01T05:49:54;11.03;;;7.83;;
13291;SDS011;6714;53.056;8.690;2023-03-01T05:52:37;13.73;;;8.80;;
13291;SDS011;6714;53.056;8.690;2023-03-01T05:55:20;11.03;;;8.23;;
13291;SDS011;6714;53.056;8.690;2023-03-01T05:58:05;10.60;;;8.23;;
13291;SDS011;6714;53.056;8.690;2023-03-01T06:00:48;11.03;;;8.33;;
13291;SDS011;6714;53.056;8.690;2023-03-01T06:03:37;9.77;;;6.73;;
13291;SDS011;6714;53.056;8.690;2023-03-01T06:06:19;8.43;;;7.20;;
13291;SDS011;6714;53.056;8.690;2023-03-01T06:09:02;10.83;;;7.67;;
13291;SDS011;6714;53.056;8.690;2023-03-01T06:11:48;10.27;;;7.77;;
13291;SDS011;6714;53.056;8.690;2023-03-01T06:14:30;11.13;;;7.40;;
13291;SDS011;6714;53.056;8.690;2023-03-01T06:17:14;10.30;;;7.07;;
13291;SDS011;6714;53.056;8.690;2023-03-01T06:19:59;10.90;;;7.67;;
13291;SDS011;6714;53.056;8.690;2023-03-01T06:22:41;11.77;;;7.90;;
13291;SDS011;6714;53.056;8.690;2023-03-01T06:25:25;11.27;;;7.43;;
13291;SDS011;6714;53.056;8.690;2023-03-01T06:28:08;11.20;;;7.83;;
13291;SDS011;6714;53.056;8.690;2023-03-01T06:30:51;9.70;;;7.30;;
13291;SDS011;6714;53.056;8.690;2023-03-01T06:33:33;9.33;;;7.77;;
13291;SDS011;6714;53.056;8.690;2023-03-01T06:36:29;10.60;;;7.37;;
13291;SDS011;6714;53.056;8.690;2023-03-01T06:39:12;9.63;;;7.50;;
13291;SDS011;6714;53.056;8.690;2023-03-01T06:41:56;12.73;;;7.83;;
13291;SDS011;6714;53.056;8.690;2023-03-01T06:44:42;9.80;;;7.67;;
13291;SDS011;6714;53.056;8.690;2023-03-01T06:47:27;8.67;;;7.07;;
13291;SDS011;6714;53.056;8.690;2023-03-01T06:50:15;10.20;;;7.03;;
13291;SDS011;6714;53.056;8.690;2023-03-01T06:53:00;8.67;;;7.47;;
13291;SDS011;6714;53.056;8.690;2023-03-01T06:55:43;9.20;;;7.20;;
13291;SDS011;6714;53.056;8.690;2023-03-01T06:58:26;11.03;;;7.83;;
13291;SDS011;6714;53.056;8.690;2023-03-01T07:01:09;11.57;;;8.30;;
13291;SDS011;6714;53.056;8.690;2023-03-01T07:03:53;10.30;;;8.13;;
13291;SDS011;6714;53.056;8.690;2023-03-01T07:06:36;10.10;;;7.53;;
13291;SDS011;6714;53.056;8.690;2023-03-01T07:09:20;8.97;;;7.03;;
13291;SDS011;6714;53.056;8.690;2023-03-01T07:12:03;9.00;;;7.57;;
13291;SDS011;6714;53.056;8.690;2023-03-01T07:14:47;11.47;;;7.90;;
13291;SDS011;6714;53.056;8.690;2023-03-01T07:17:30;13.27;;;8.03;;
13291;SDS011;6714;53.056;8.690;2023-03-01T07:20:13;10.97;;;8.30;;
13291;SDS011;6714;53.056;8.690;2023-03-01T07:22:56;11.27;;;8.53;;
13291;SDS011;6714;53.056;8.690;2023-03-01T07:25:40;11.07;;;8.40;;
13291;SDS011;6714;53.056;8.690;2023-03-01T07:28:24;12.67;;;9.00;;
13291;SDS011;6714;53.056;8.690;2023-03-01T07:31:06;12.53;;;8.77;;
13291;SDS011;6714;53.056;8.690;2023-03-01T07:33:50;14.50;;;9.57;;
13291;SDS011;6714;53.056;8.690;2023-03-01T07:36:33;13.20;;;9.10;;
13291;SDS011;6714;53.056;8.690;2023-03-01T07:39:16;15.20;;;9.57;;
13291;SDS011;6714;53.056;8.690;2023-03-01T07:42:01;15.43;;;9.63;;
13291;SDS011;6714;53.056;8.690;2023-03-01T07:44:44;13.63;;;9.90;;
13291;SDS011;6714;53.056;8.690;2023-03-01T07:47:27;14.47;;;9.70;;
13291;SDS011;6714;53.056;8.690;2023-03-01T07:50:10;14.63;;;11.10;;
13291;SDS011;6714;53.056;8.690;2023-03-01T07:52:54;16.70;;;11.93;;
13291;SDS011;6714;53.056;8.690;2023-03-01T07:55:36;14.23;;;10.47;;
13291;SDS011;6714;53.056;8.690;2023-03-01T07:58:21;18.27;;;12.37;;
13291;SDS011;6714;53.056;8.690;2023-03-01T08:01:04;18.57;;;11.87;;
13291;SDS011;6714;53.056;8.690;2023-03-01T08:03:47;20.27;;;13.47;;
13291;SDS011;6714;53.056;8.690;2023-03-01T08:06:30;19.17;;;13.33;;
13291;SDS011;6714;53.056;8.690;2023-03-01T08:09:12;15.90;;;10.80;;
13291;SDS011;6714;53.056;8.690;2023-03-01T08:11:56;15.67;;;10.10;;
13291;SDS011;6714;53.056;8.690;2023-03-01T08:14:41;13.30;;;9.67;;
13291;SDS011;6714;53.056;8.690;2023-03-01T08:17:25;17.90;;;11.73;;
13291;SDS011;6714;53.056;8.690;2023-03-01T08:20:09;14.57;;;10.00;;
13291;SDS011;6714;53.056;8.690;2023-03-01T08:22:52;21.90;;;14.10;;
13291;SDS011;6714;53.056;8.690;2023-03-01T08:25:36;15.27;;;11.17;;
13291;SDS011;6714;53.056;8.690;2023-03-01T08:28:20;18.37;;;13.57;;
13291;SDS011;6714;53.056;8.690;2023-03-01T08:31:04;18.00;;;12.43;;
13291;SDS011;6714;53.056;8.690;2023-03-01T08:33:55;16.60;;;12.43;;
13291;SDS011;6714;53.056;8.690;2023-03-01T08:36:39;16.07;;;12.27;;
13291;SDS011;6714;53.056;8.690;2023-03-01T08:39:22;14.50;;;10.80;;
13291;SDS011;6714;53.056;8.690;2023-03-01T08:42:04;15.70;;;11.50;;
13291;SDS011;6714;53.056;8.690;2023-03-01T08:44:47;15.87;;;11.80;;
13291;SDS011;6714;53.056;8.690;2023-03-01T08:47:31;15.17;;;11.93;;
13291;SDS011;6714;53.056;8.690;2023-03-01T08:50:13;16.03;;;12.33;;
13291;SDS011;6714;53.056;8.690;2023-03-01T08:52:56;14.07;;;11.53;;
13291;SDS011;6714;53.056;8.690;2023-03-01T08:55:39;15.97;;;12.03;;
13291;SDS011;6714;53.056;8.690;2023-03-01T08:58:22;18.03;;;12.67;;
13291;SDS011;6714;53.056;8.690;2023-03-01T09:01:06;14.17;;;11.70;;
13291;SDS011;6714;53.056;8.690;2023-03-01T09:03:50;18.23;;;12.80;;
13291;SDS011;6714;53.056;8.690;2023-03-01T09:06:33;14.90;;;10.80;;
13291;SDS011;6714;53.056;8.690;2023-03-01T09:09:16;12.20;;;10.40;;
13291;SDS011;6714;53.056;8.690;2023-03-01T09:12:00;15.00;;;10.87;;
13291;SDS011;6714;53.056;8.690;2023-03-01T09:14:43;13.60;;;11.00;;
13291;SDS011;6714;53.056;8.690;2023-03-01T09:17:25;15.70;;;11.23;;
13291;SDS011;6714;53.056;8.690;2023-03-01T09:20:11;17.17;;;10.60;;
13291;SDS011;6714;53.056;8.690;2023-03-01T09:22:54;14.77;;;10.80;;
13291;SDS011;6714;53.056;8.690;2023-03-01T09:25:37;15.50;;;11.70;;
13291;SDS011;6714;53.056;8.690;2023-03-01T09:28:19;13.93;;;11.43;;
13291;SDS011;6714;53.056;8.690;2023-03-01T09:31:03;17.47;;;12.10;;
13291;SDS011;6714;53.056;8.690;2023-03-01T09:33:47;17.50;;;11.50;;
13291;SDS011;6714;53.056;8.690;2023-03-01T09:36:31;14.67;;;11.03;;
13291;SDS011;6714;53.056;8.690;2023-03-01T09:39:14;17.13;;;11.03;;
13291;SDS011;6714;53.056;8.690;2023-03-01T09:41:59;21.30;;;11.57;;
13291;SDS011;6714;53.056;8.690;2023-03-01T09:44:43;18.57;;;11.23;;
13291;SDS011;6714;53.056;8.690;2023-03-01T09:47:28;18.70;;;11.87;;
13291;SDS011;6714;53.056;8.690;2023-03-01T09:50:12;15.17;;;10.37;;
13291;SDS011;6714;53.056;8.690;2023-03-01T09:53:01;13.47;;;9.03;;
13291;SDS011;6714;53.056;8.690;2023-03-01T09:55:44;25.83;;;14.43;;
13291;SDS011;6714;53.056;8.690;2023-03-01T09:58:29;21.27;;;13.47;;
13291;SDS011;6714;53.056;8.690;2023-03-01T10:01:26;24.10;;;16.23;;
13291;SDS011;6714;53.056;8.690;2023-03-01T10:04:19;23.60;;;12.23;;
13291;SDS011;6714;53.056;8.690;2023-03-01T10:07:11;13.97;;;10.60;;
13291;SDS011;6714;53.056;8.690;2023-03-01T10:09:56;20.07;;;12.70;;
13291;SDS011;6714;53.056;8.690;2023-03-01T10:12:40;12.77;;;9.40;;
13291;SDS011;6714;53.056;8.690;2023-03-01T10:15:25;15.30;;;10.10;;
13291;SDS011;6714;53.056;8.690;2023-03-01T10:18:11;18.33;;;10.63;;
13291;SDS011;6714;53.056;8.690;2023-03-01T10:20:55;19.93;;;12.33;;
13291;SDS011;6714;53.056;8.690;2023-03-01T10:23:40;14.50;;;10.43;;
13291;SDS011;6714;53.056;8.690;2023-03-01T10:29:23;17.10;;;12.40;;
13291;SDS011;6714;53.056;8.690;2023-03-01T10:32:08;18.77;;;11.43;;
13291;SDS011;6714;53.056;8.690;2023-03-01T10:34:52;17.10;;;10.70;;
13291;SDS011;6714;53.056;8.690;2023-03-01T10:37:34;12.30;;;9.00;;
13291;SDS011;6714;53.056;8.690;2023-03-01T10:40:17;12.37;;;9.00;;
13291;SDS011;6714;53.056;8.690;2023-03-01T10:43:02;7.60;;;6.07;;
13291;SDS011;6714;53.056;8.690;2023-03-01T10:45:48;14.93;;;8.90;;
13291;SDS011;6714;53.056;8.690;2023-03-01T10:48:31;13.37;;;9.50;;
13291;SDS011;6714;53.056;8.690;2023-03-01T10:51:15;13.73;;;9.07;;
13291;SDS011;6714;53.056;8.690;2023-03-01T10:54:00;10.20;;;8.53;;
13291;SDS011;6714;53.056;8.690;2023-03-01T10:56:47;11.20;;;7.37;;
13291;SDS011;6714;53.056;8.690;2023-03-01T10:59:31;9.47;;;7.87;;
13291;SDS011;6714;53.056;8.690;2023-03-01T11:02:21;13.40;;;8.80;;
13291;SDS011;6714;53.056;8.690;2023-03-01T11:05:13;11.40;;;8.40;;
13291;SDS011;6714;53.056;8.690;2023-03-01T11:07:59;10.10;;;8.17;;
13291;SDS011;6714;53.056;8.690;2023-03-01T11:10:43;11.60;;;8.57;;
13291;SDS011;6714;53.056;8.690;2023-03-01T11:13:25;9.73;;;8.33;;
13291;SDS011;6714;53.056;8.690;2023-03-01T11:16:10;13.03;;;9.90;;
13291;SDS011;6714;53.056;8.690;2023-03-01T11:18:59;11.17;;;8.97;;
13291;SDS011;6714;53.056;8.690;2023-03-01T11:21:44;15.27;;;12.10;;
13291;SDS011;6714;53.056;8.690;2023-03-01T11:24:32;14.40;;;10.67;;
13291;SDS011;6714;53.056;8.690;2023-03-01T11:27:17;12.83;;;10.53;;
13291;SDS011;6714;53.056;8.690;2023-03-01T11:30:03;13.13;;;10.70;;
13291;SDS011;6714;53.056;8.690;2023-03-01T11:32:47;14.00;;;10.87;;
13291;SDS011;6714;53.056;8.690;2023-03-01T11:35:35;13.33;;;10.67;;
13291;SDS011;6714;53.056;8.690;2023-03-01T11:38:20;12.17;;;10.40;;
13291;SDS011;6714;53.056;8.690;2023-03-01T11:41:05;11.33;;;9.50;;
13291;SDS011;6714;53.056;8.690;2023-03-01T11:43:50;10.70;;;9.10;;
13291;SDS011;6714;53.056;8.690;2023-03-01T11:46:46;10.50;;;9.17;;
13291;SDS011;6714;53.056;8.690;2023-03-01T11:49:38;13.63;;;11.13;;
13291;SDS011;6714;53.056;8.690;2023-03-01T11:52:29;12.43;;;10.90;;
13291;SDS011;6714;53.056;8.690;2023-03-01T11:55:19;11.20;;;9.77;;
13291;SDS011;6714;53.056;8.690;2023-03-01T11:58:11;11.93;;;10.50;;
13291;SDS011;6714;53.056;8.690;2023-03-01T12:03:58;11.40;;;9.57;;
13291;SDS011;6714;53.056;8.690;2023-03-01T12:06:56;9.93;;;8.50;;
13291;SDS011;6714;53.056;8.690;2023-03-01T12:09:46;12.37;;;10.40;;
13291;SDS011;6714;53.056;8.690;2023-03-01T12:12:32;11.37;;;9.73;;
13291;SDS011;6714;53.056;8.690;2023-03-01T12:18:20;11.90;;;10.53;;
13291;SDS011;6714;53.056;8.690;2023-03-01T12:21:11;11.73;;;10.43;;
13291;SDS011;6714;53.056;8.690;2023-03-01T12:27:03;11.90;;;10.60;;
13291;SDS011;6714;53.056;8.690;2023-03-01T12:29:50;11.73;;;10.53;;
13291;SDS011;6714;53.056;8.690;2023-03-01T12:32:37;12.60;;;11.33;;
13291;SDS011;6714;53.056;8.690;2023-03-01T12:38:37;14.83;;;12.30;;
13291;SDS011;6714;53.056;8.690;2023-03-01T12:41:35;14.33;;;12.20;;
13291;SDS011;6714;53.056;8.690;2023-03-01T12:44:28;11.57;;;10.47;;
13291;SDS011;6714;53.056;8.690;2023-03-01T12:47:15;12.30;;;10.97;;
13291;SDS011;6714;53.056;8.690;2023-03-01T12:50:01;11.83;;;10.73;;
13291;SDS011;6714;53.056;8.690;2023-03-01T12:52:46;11.00;;;9.93;;
13291;SDS011;6714;53.056;8.690;2023-03-01T12:55:29;10.57;;;9.53;;
13291;SDS011;6714;53.056;8.690;2023-03-01T12:58:16;11.30;;;10.17;;
13291;SDS011;6714;53.056;8.690;2023-03-01T13:01:05;10.87;;;9.77;;
13291;SDS011;6714;53.056;8.690;2023-03-01T13:06:58;10.43;;;9.43;;
13291;SDS011;6714;53.056;8.690;2023-03-01T13:09:43;12.47;;;10.83;;
13291;SDS011;6714;53.056;8.690;2023-03-01T13:12:50;9.30;;;8.40;;
13291;SDS011;6714;53.056;8.690;2023-03-01T13:15:33;9.60;;;8.63;;
13291;SDS011;6714;53.056;8.690;2023-03-01T13:18:31;9.40;;;8.50;;
13291;SDS011;6714;53.056;8.690;2023-03-01T13:21:14;11.00;;;9.80;;
13291;SDS011;6714;53.056;8.690;2023-03-01T13:24:25;10.93;;;9.83;;
13291;SDS011;6714;53.056;8.690;2023-03-01T13:27:21;9.60;;;8.60;;
13291;SDS011;6714;53.056;8.690;2023-03-01T13:30:12;9.73;;;8.77;;
13291;SDS011;6714;53.056;8.690;2023-03-01T13:39:29;9.17;;;7.93;;
13291;SDS011;6714;53.056;8.690;2023-03-01T13:42:33;11.03;;;9.93;;
13291;SDS011;6714;53.056;8.690;2023-03-01T13:45:24;8.83;;;8.00;;
13291;SDS011;6714;53.056;8.690;2023-03-01T13:48:09;9.47;;;8.40;;
13291;SDS011;6714;53.056;8.690;2023-03-01T13:50:54;9.93;;;8.93;;
13291;SDS011;6714;53.056;8.690;2023-03-01T13:53:39;10.13;;;8.87;;
13291;SDS011;6714;53.056;8.690;2023-03-01T13:56:33;10.83;;;8.60;;
13291;SDS011;6714;53.056;8.690;2023-03-01T13:59:19;9.23;;;8.33;;
13291;SDS011;6714;53.056;8.690;2023-03-01T14:02:02;10.47;;;9.37;;
13291;SDS011;6714;53.056;8.690;2023-03-01T14:04:46;9.70;;;8.70;;
13291;SDS011;6714;53.056;8.690;2023-03-01T14:07:38;7.63;;;6.83;;
13291;SDS011;6714;53.056;8.690;2023-03-01T14:10:21;9.60;;;8.10;;
13291;SDS011;6714;53.056;8.690;2023-03-01T14:13:08;9.70;;;8.80;;
13291;SDS011;6714;53.056;8.690;2023-03-01T14:16:01;9.57;;;8.67;;
13291;SDS011;6714;53.056;8.690;2023-03-01T14:18:47;8.73;;;7.93;;
13291;SDS011;6714;53.056;8.690;2023-03-01T14:21:33;11.33;;;9.63;;
13291;SDS011;6714;53.056;8.690;2023-03-01T14:24:17;10.47;;;9.37;;
13291;SDS011;6714;53.056;8.690;2023-03-01T14:27:00;9.40;;;8.50;;
13291;SDS011;6714;53.056;8.690;2023-03-01T14:29:53;8.80;;;7.90;;
13291;SDS011;6714;53.056;8.690;2023-03-01T14:32:37;8.33;;;7.50;;
13291;SDS011;6714;53.056;8.690;2023-03-01T14:35:20;9.47;;;8.53;;
13291;SDS011;6714;53.056;8.690;2023-03-01T14:38:04;9.87;;;8.30;;
13291;SDS011;6714;53.056;8.690;2023-03-01T14:40:46;9.97;;;8.77;;
13291;SDS011;6714;53.056;8.690;2023-03-01T14:43:32;10.53;;;9.47;;
13291;SDS011;6714;53.056;8.690;2023-03-01T14:46:21;9.30;;;8.33;;
13291;SDS011;6714;53.056;8.690;2023-03-01T14:49:06;11.13;;;9.97;;
13291;SDS011;6714;53.056;8.690;2023-03-01T14:51:53;10.93;;;9.83;;
13291;SDS011;6714;53.056;8.690;2023-03-01T14:54:39;13.30;;;10.97;;
13291;SDS011;6714;53.056;8.690;2023-03-01T14:57:23;13.40;;;12.00;;
13291;SDS011;6714;53.056;8.690;2023-03-01T15:00:07;10.50;;;9.50;;
13291;SDS011;6714;53.056;8.690;2023-03-01T15:02:52;11.33;;;10.13;;
13291;SDS011;6714;53.056;8.690;2023-03-01T15:05:35;9.17;;;8.27;;
13291;SDS011;6714;53.056;8.690;2023-03-01T15:08:18;10.63;;;9.47;;
13291;SDS011;6714;53.056;8.690;2023-03-01T15:11:02;12.47;;;10.47;;
13291;SDS011;6714;53.056;8.690;2023-03-01T15:13:45;10.93;;;9.80;;
13291;SDS011;6714;53.056;8.690;2023-03-01T15:16:29;12.83;;;11.50;;
13291;SDS011;6714;53.056;8.690;2023-03-01T15:19:16;12.37;;;11.07;;
13291;SDS011;6714;53.056;8.690;2023-03-01T15:21:59;11.20;;;10.10;;
13291;SDS011;6714;53.056;8.690;2023-03-01T15:24:52;11.73;;;10.60;;
13291;SDS011;6714;53.056;8.690;2023-03-01T15:27:35;12.50;;;11.20;;
13291;SDS011;6714;53.056;8.690;2023-03-01T15:30:23;13.77;;;12.33;;
13291;SDS011;6714;53.056;8.690;2023-03-01T15:33:17;12.03;;;10.83;;
13291;SDS011;6714;53.056;8.690;2023-03-01T15:36:02;14.90;;;13.30;;
13291;SDS011;6714;53.056;8.690;2023-03-01T15:38:51;10.70;;;9.07;;
13291;SDS011;6714;53.056;8.690;2023-03-01T15:41:37;12.77;;;11.47;;
13291;SDS011;6714;53.056;8.690;2023-03-01T15:44:25;12.43;;;10.87;;
13291;SDS011;6714;53.056;8.690;2023-03-01T15:47:20;12.37;;;10.37;;
13291;SDS011;6714;53.056;8.690;2023-03-01T15:50:04;15.57;;;13.43;;
13291;SDS011;6714;53.056;8.690;2023-03-01T15:52:48;12.67;;;10.53;;
13291;SDS011;6714;53.056;8.690;2023-03-01T15:55:31;15.33;;;12.43;;
13291;SDS011;6714;53.056;8.690;2023-03-01T15:58:15;13.20;;;11.80;;
13291;SDS011;6714;53.056;8.690;2023-03-01T16:00:58;17.77;;;14.50;;
13291;SDS011;6714;53.056;8.690;2023-03-01T16:03:40;11.03;;;9.90;;
13291;SDS011;6714;53.056;8.690;2023-03-01T16:06:24;17.07;;;13.37;;
13291;SDS011;6714;53.056;8.690;2023-03-01T16:09:08;14.37;;;11.93;;
13291;SDS011;6714;53.056;8.690;2023-03-01T16:11:52;15.60;;;13.47;;
13291;SDS011;6714;53.056;8.690;2023-03-01T16:14:36;11.97;;;9.70;;
13291;SDS011;6714;53.056;8.690;2023-03-01T16:17:18;12.93;;;11.33;;
13291;SDS011;6714;53.056;8.690;2023-03-01T16:20:01;16.37;;;13.43;;
13291;SDS011;6714;53.056;8.690;2023-03-01T16:22:46;15.13;;;12.90;;
13291;SDS011;6714;53.056;8.690;2023-03-01T16:25:33;17.07;;;12.93;;
13291;SDS011;6714;53.056;8.690;2023-03-01T16:28:16;16.53;;;13.70;;
13291;SDS011;6714;53.056;8.690;2023-03-01T16:30:58;15.80;;;12.77;;
13291;SDS011;6714;53.056;8.690;2023-03-01T16:33:41;15.10;;;12.83;;
13291;SDS011;6714;53.056;8.690;2023-03-01T16:36:29;16.03;;;13.20;;
13291;SDS011;6714;53.056;8.690;2023-03-01T16:39:12;15.07;;;12.30;;
13291;SDS011;6714;53.056;8.690;2023-03-01T16:41:57;12.50;;;10.37;;
13291;SDS011;6714;53.056;8.690;2023-03-01T16:44:42;20.93;;;16.70;;
13291;SDS011;6714;53.056;8.690;2023-03-01T16:47:24;11.37;;;9.43;;
13291;SDS011;6714;53.056;8.690;2023-03-01T16:50:07;18.90;;;15.00;;
13291;SDS011;6714;53.056;8.690;2023-03-01T16:52:50;12.67;;;10.57;;
13291;SDS011;6714;53.056;8.690;2023-03-01T16:55:32;17.63;;;13.57;;
13291;SDS011;6714;53.056;8.690;2023-03-01T16:58:16;20.03;;;15.50;;